createdAt,value
2018-11-02T00:00:07.378Z,27.07
2018-11-02T00:02:09.611Z,29.00
2018-11-02T00:04:11.815Z,26.43
2018-11-02T00:06:14.402Z,29.37
2018-11-02T00:08:16.658Z,28.70
2018-11-02T00:10:18.886Z,28.50
2018-11-02T00:12:21.136Z,29.17
2018-11-02T00:14:23.388Z,26.77
2018-11-02T00:16:25.721Z,27.40
2018-11-02T00:18:28.028Z,28.80
2018-11-02T00:20:30.276Z,29.10
2018-11-02T00:22:32.694Z,27.13
2018-11-02T00:24:34.980Z,26.57
2018-11-02T00:26:37.286Z,26.93
2018-11-02T00:28:39.590Z,26.27
2018-11-02T00:30:41.878Z,27.50
2018-11-02T00:32:44.202Z,25.70
2018-11-02T00:34:46.742Z,27.47
2018-11-02T00:36:49.004Z,25.93
2018-11-02T00:38:51.279Z,27.93
2018-11-02T00:40:53.699Z,23.10
2018-11-02T00:42:55.968Z,25.50
2018-11-02T00:44:58.281Z,24.83
2018-11-02T00:47:01.811Z,26.63
2018-11-02T00:49:04.540Z,27.03
2018-11-02T00:51:06.903Z,26.90
2018-11-02T00:53:09.964Z,26.80
2018-11-02T00:55:12.249Z,25.23
2018-11-02T00:57:14.604Z,27.37
2018-11-02T00:59:16.863Z,25.03
2018-11-02T01:01:19.118Z,24.27
2018-11-02T01:03:21.347Z,27.60
2018-11-02T01:05:23.752Z,28.30
2018-11-02T01:07:26.009Z,28.50
2018-11-02T01:09:28.269Z,27.30
2018-11-02T01:11:30.595Z,27.47
2018-11-02T01:13:32.912Z,27.93
2018-11-02T01:15:35.187Z,27.73
2018-11-02T01:17:37.518Z,28.70
2018-11-02T01:19:39.921Z,27.10
2018-11-02T01:21:42.287Z,26.30
2018-11-02T01:23:44.604Z,28.23
2018-11-02T01:25:46.896Z,32.07
2018-11-02T01:27:49.153Z,26.97
2018-11-02T01:29:51.799Z,26.93
2018-11-02T01:31:54.164Z,28.03
2018-11-02T01:33:56.475Z,26.57
2018-11-02T01:35:58.902Z,25.67
2018-11-02T01:38:01.194Z,25.67
2018-11-02T01:40:03.839Z,25.47
2018-11-02T01:42:06.586Z,26.43
2018-11-02T01:44:08.858Z,25.73
2018-11-02T01:46:11.115Z,23.80
2018-11-02T01:48:13.426Z,25.83
2018-11-02T01:50:15.709Z,25.07
2018-11-02T01:52:18.081Z,26.13
2018-11-02T01:54:20.402Z,25.33
2018-11-02T01:56:22.685Z,25.73
2018-11-02T01:58:24.982Z,23.67
2018-11-02T02:00:27.306Z,25.07
2018-11-02T02:02:29.630Z,23.73
2018-11-02T02:04:31.912Z,23.23
2018-11-02T02:06:34.272Z,23.37
2018-11-02T02:08:36.551Z,22.77
2018-11-02T02:10:38.820Z,24.83
2018-11-02T02:12:41.090Z,23.33
2018-11-02T02:14:43.313Z,23.70
2018-11-02T02:16:45.609Z,23.20
2018-11-02T02:18:47.927Z,23.20
2018-11-02T02:20:50.915Z,23.10
2018-11-02T02:22:53.235Z,23.70
2018-11-02T02:24:55.580Z,24.13
2018-11-02T02:26:57.879Z,23.40
2018-11-02T02:29:00.171Z,24.43
2018-11-02T02:31:02.466Z,21.97
2018-11-02T02:33:04.792Z,23.93
2018-11-02T02:35:08.012Z,22.20
2018-11-02T02:37:10.322Z,21.73
2018-11-02T02:39:12.706Z,21.17
2018-11-02T02:41:15.022Z,20.43
2018-11-02T02:43:17.355Z,20.77
2018-11-02T02:45:19.767Z,20.40
2018-11-02T02:47:22.070Z,19.57
2018-11-02T02:49:24.377Z,20.20
2018-11-02T02:51:26.677Z,21.13
2018-11-02T02:53:28.967Z,21.27
2018-11-02T02:55:31.287Z,19.53
2018-11-02T02:57:34.216Z,21.17
2018-11-02T02:59:36.711Z,20.90
2018-11-02T03:01:38.975Z,19.67
2018-11-02T03:03:41.318Z,21.20
2018-11-02T03:05:43.649Z,20.37
2018-11-02T03:07:45.954Z,19.40
2018-11-02T03:09:48.543Z,17.10
2018-11-02T03:11:50.741Z,19.27
2018-11-02T03:13:52.980Z,18.80
2018-11-02T03:15:55.458Z,17.40
2018-11-02T03:17:58.060Z,17.20
2018-11-02T03:20:00.343Z,17.40
2018-11-02T03:22:02.859Z,16.30
2018-11-02T03:24:05.090Z,16.57
2018-11-02T03:26:07.364Z,17.27
2018-11-02T03:28:09.664Z,17.00
2018-11-02T03:30:12.107Z,16.33
2018-11-02T03:32:14.376Z,15.43
2018-11-02T03:34:17.167Z,15.90
2018-11-02T03:36:19.508Z,16.70
2018-11-02T03:38:21.774Z,14.67
2018-11-02T03:40:24.038Z,14.80
2018-11-02T03:42:26.349Z,14.57
2018-11-02T03:44:28.607Z,15.60
2018-11-02T03:46:30.892Z,14.47
2018-11-02T03:48:33.180Z,14.87
2018-11-02T03:50:35.438Z,13.83
2018-11-02T03:52:37.664Z,13.90
2018-11-02T03:54:39.898Z,13.27
2018-11-02T03:56:42.205Z,13.37
2018-11-02T03:58:44.431Z,13.43
2018-11-02T04:00:46.750Z,13.53
2018-11-02T04:02:49.139Z,13.90
2018-11-02T04:04:51.420Z,13.20
2018-11-02T04:06:53.758Z,13.70
2018-11-02T04:08:56.048Z,15.47
2018-11-02T04:10:58.391Z,14.90
2018-11-02T04:13:00.611Z,13.40
2018-11-02T04:15:03.073Z,13.00
2018-11-02T04:17:05.478Z,12.70
2018-11-02T04:19:07.740Z,13.17
2018-11-02T04:21:10.044Z,12.67
2018-11-02T04:23:12.285Z,12.93
2018-11-02T04:25:14.532Z,14.03
2018-11-02T04:27:16.999Z,13.20
2018-11-02T04:29:19.353Z,12.60
2018-11-02T04:31:21.628Z,13.07
2018-11-02T04:33:23.974Z,13.67
2018-11-02T04:35:26.263Z,12.90
2018-11-02T04:37:28.565Z,12.83
2018-11-02T04:39:30.885Z,13.30
2018-11-02T04:41:33.134Z,14.40
2018-11-02T04:43:35.390Z,12.67
2018-11-02T04:45:38.070Z,12.60
2018-11-02T04:47:40.361Z,14.40
2018-11-02T04:49:42.647Z,15.00
2018-11-02T04:51:44.968Z,16.00
2018-11-02T04:53:47.275Z,12.90
2018-11-02T04:55:49.647Z,13.70
2018-11-02T04:57:51.842Z,15.07
2018-11-02T04:59:54.083Z,13.40
2018-11-02T05:01:56.370Z,13.37
2018-11-02T05:03:58.620Z,14.40
2018-11-02T05:06:00.916Z,13.80
2018-11-02T05:08:03.191Z,12.77
2018-11-02T05:10:05.916Z,12.13
2018-11-02T05:12:08.190Z,13.90
2018-11-02T05:14:10.461Z,13.30
2018-11-02T05:16:13.018Z,12.47
2018-11-02T05:18:15.321Z,12.57
2018-11-02T05:20:17.652Z,14.30
2018-11-02T05:22:19.903Z,11.93
2018-11-02T05:24:22.099Z,12.00
2018-11-02T05:26:24.332Z,12.67
2018-11-02T05:28:26.571Z,13.47
2018-11-02T05:30:28.830Z,13.53
2018-11-02T05:32:31.043Z,13.13
2018-11-02T05:34:33.358Z,12.17
2018-11-02T05:36:35.629Z,14.73
2018-11-02T05:39:02.462Z,11.43
2018-11-02T05:41:05.090Z,12.60
2018-11-02T05:43:07.353Z,12.80
2018-11-02T05:45:09.568Z,13.13
2018-11-02T05:47:11.884Z,13.47
2018-11-02T05:49:14.112Z,13.07
2018-11-02T05:51:16.390Z,12.40
2018-11-02T05:53:18.811Z,12.50
2018-11-02T05:55:21.106Z,12.90
2018-11-02T05:57:23.342Z,12.67
2018-11-02T05:59:25.634Z,13.33
2018-11-02T06:01:28.167Z,13.77
2018-11-02T06:03:30.351Z,14.00
2018-11-02T06:05:32.655Z,12.70
2018-11-02T06:07:35.125Z,14.17
2018-11-02T06:09:37.286Z,12.67
2018-11-02T06:11:39.526Z,12.57
2018-11-02T06:13:41.847Z,12.57
2018-11-02T06:15:44.206Z,14.30
2018-11-02T06:17:46.492Z,13.27
2018-11-02T06:19:48.758Z,12.20
2018-11-02T06:21:50.977Z,13.50
2018-11-02T06:23:53.319Z,13.03
2018-11-02T06:25:55.592Z,14.23
2018-11-02T06:27:57.851Z,12.37
2018-11-02T06:30:00.099Z,12.47
2018-11-02T06:32:02.340Z,12.37
2018-11-02T06:34:07.843Z,13.10
2018-11-02T06:36:10.922Z,13.23
2018-11-02T06:38:13.150Z,13.80
2018-11-02T06:40:15.422Z,13.63
2018-11-02T06:42:17.711Z,13.77
2018-11-02T06:44:20.031Z,13.40
2018-11-02T06:46:22.313Z,13.13
2018-11-02T06:48:24.674Z,13.83
2018-11-02T06:50:26.950Z,14.77
2018-11-02T06:52:30.131Z,14.13
2018-11-02T06:54:32.542Z,13.90
2018-11-02T06:56:34.836Z,14.20
2018-11-02T06:58:37.262Z,13.50
2018-11-02T07:00:40.457Z,14.50
2018-11-02T07:02:42.700Z,13.57
2018-11-02T07:04:45.842Z,13.60
2018-11-02T07:06:48.163Z,13.23
2018-11-02T07:08:51.394Z,14.33
2018-11-02T07:10:54.077Z,13.83
2018-11-02T07:12:56.315Z,12.97
2018-11-02T07:14:58.565Z,13.97
2018-11-02T07:17:00.878Z,12.50
2018-11-02T07:19:03.156Z,14.53
2018-11-02T07:21:05.494Z,13.07
2018-11-02T07:23:07.987Z,13.57
2018-11-02T07:25:11.050Z,13.97
2018-11-02T07:27:13.384Z,13.07
2018-11-02T07:29:15.699Z,14.13
2018-11-02T07:31:18.229Z,12.40
2018-11-02T07:33:21.074Z,13.10
2018-11-02T07:35:23.326Z,13.70
2018-11-02T07:37:25.608Z,12.17
2018-11-02T07:39:30.064Z,13.40
2018-11-02T07:41:32.394Z,12.93
2018-11-02T07:43:35.398Z,12.07
2018-11-02T07:45:37.672Z,12.50
2018-11-02T07:47:40.276Z,13.63
2018-11-02T07:49:43.042Z,11.67
2018-11-02T07:51:45.146Z,12.87
2018-11-02T07:53:47.388Z,12.50
2018-11-02T07:55:49.710Z,12.40
2018-11-02T07:57:51.959Z,12.77
2018-11-02T07:59:54.349Z,11.80
2018-11-02T08:01:56.630Z,11.67
2018-11-02T08:03:59.297Z,13.27
2018-11-02T08:06:01.250Z,12.03
2018-11-02T08:08:03.534Z,13.20
2018-11-02T08:10:05.956Z,12.57
2018-11-02T08:12:08.223Z,13.70
2018-11-02T08:14:10.800Z,14.13
2018-11-02T08:16:13.063Z,15.30
2018-11-02T08:18:15.471Z,13.20
2018-11-02T08:20:17.709Z,13.43
2018-11-02T08:22:19.964Z,14.00
2018-11-02T08:24:22.289Z,14.50
2018-11-02T08:26:24.533Z,14.43
2018-11-02T08:28:26.843Z,15.57
2018-11-02T08:30:29.075Z,14.13
2018-11-02T08:32:31.398Z,14.33
2018-11-02T08:34:33.668Z,14.57
2018-11-02T08:36:36.192Z,13.60
2018-11-02T08:38:38.468Z,13.37
2018-11-02T08:40:40.718Z,14.47
2018-11-02T08:42:43.147Z,14.87
2018-11-02T08:44:45.405Z,13.83
2018-11-02T08:46:47.746Z,14.50
2018-11-02T08:48:50.525Z,15.17
2018-11-02T08:50:52.760Z,14.97
2018-11-02T08:52:55.103Z,15.50
2018-11-02T08:54:57.383Z,14.50
2018-11-02T08:56:59.685Z,15.10
2018-11-02T08:59:02.021Z,14.10
2018-11-02T09:01:04.214Z,13.90
2018-11-02T09:03:06.459Z,15.23
2018-11-02T09:05:09.002Z,12.87
2018-11-02T09:07:11.229Z,11.93
2018-11-02T09:09:13.511Z,14.97
2018-11-02T09:11:15.769Z,13.57
2018-11-02T09:13:18.091Z,12.40
2018-11-02T09:15:20.398Z,12.57
2018-11-02T09:17:22.671Z,12.17
2018-11-02T09:19:25.179Z,10.73
2018-11-02T09:21:27.750Z,10.90
2018-11-02T09:23:29.768Z,11.40
2018-11-02T09:25:32.232Z,10.53
2018-11-02T09:27:34.537Z,11.20
2018-11-02T09:29:36.744Z,10.07
2018-11-02T09:31:39.431Z,10.20
2018-11-02T09:33:41.699Z,8.83
2018-11-02T09:35:44.012Z,9.90
2018-11-02T09:37:46.270Z,8.37
2018-11-02T09:39:48.662Z,7.57
2018-11-02T09:41:51.004Z,7.80
2018-11-02T09:43:53.274Z,7.20
2018-11-02T09:45:55.544Z,7.30
2018-11-02T09:47:57.847Z,8.43
2018-11-02T09:50:00.338Z,6.70
2018-11-02T09:52:02.721Z,5.73
2018-11-02T09:54:04.994Z,6.63
2018-11-02T09:56:07.314Z,6.40
2018-11-02T09:58:09.559Z,4.77
2018-11-02T10:00:12.885Z,3.77
2018-11-02T10:02:15.359Z,4.70
2018-11-02T10:04:17.590Z,4.00
2018-11-02T10:06:19.862Z,4.63
2018-11-02T10:08:22.491Z,3.20
2018-11-02T10:10:24.700Z,3.57
2018-11-02T10:12:26.955Z,3.50
2018-11-02T10:14:29.234Z,3.00
2018-11-02T10:16:31.579Z,3.47
2018-11-02T10:18:33.855Z,2.67
2018-11-02T10:20:36.155Z,2.90
2018-11-02T10:22:38.412Z,2.70
2018-11-02T10:24:40.692Z,2.60
2018-11-02T10:26:42.956Z,2.57
2018-11-02T10:28:45.363Z,2.43
2018-11-02T10:30:47.901Z,2.30
2018-11-02T10:32:54.682Z,2.47
2018-11-02T10:34:59.793Z,2.57
2018-11-02T10:37:05.656Z,2.27
2018-11-02T10:39:09.094Z,1.87
2018-11-02T10:41:12.567Z,2.10
2018-11-02T10:43:15.738Z,1.90
2018-11-02T10:45:18.114Z,2.20
2018-11-02T10:47:20.377Z,4.33
2018-11-02T10:49:22.961Z,2.10
2018-11-02T10:51:25.336Z,2.50
2018-11-02T10:53:27.611Z,1.73
2018-11-02T10:55:29.825Z,1.90
2018-11-02T10:57:32.100Z,2.13
2018-11-02T10:59:34.404Z,2.00
2018-11-02T11:01:42.579Z,2.40
2018-11-02T11:03:44.837Z,2.10
2018-11-02T11:05:47.267Z,2.37
2018-11-02T11:07:49.514Z,2.20
2018-11-02T11:09:51.752Z,2.40
2018-11-02T11:11:54.356Z,3.03
2018-11-02T11:13:56.518Z,2.07
2018-11-02T11:15:58.782Z,2.40
2018-11-02T11:18:01.394Z,4.40
2018-11-02T11:20:04.894Z,2.70
2018-11-02T11:22:07.192Z,2.50
2018-11-02T11:24:09.458Z,2.80
2018-11-02T11:26:11.768Z,2.63
2018-11-02T11:28:14.094Z,2.57
2018-11-02T11:30:17.564Z,2.30
2018-11-02T11:32:19.897Z,2.70
2018-11-02T11:34:22.148Z,2.93
2018-11-02T11:36:25.967Z,2.57
2018-11-02T11:38:28.245Z,2.20
2018-11-02T11:40:30.706Z,4.33
2018-11-02T11:42:33.667Z,2.60
2018-11-02T11:44:35.918Z,3.20
2018-11-02T11:46:39.010Z,2.60
2018-11-02T11:48:41.874Z,2.80
2018-11-02T11:50:45.752Z,2.50
2018-11-02T11:52:49.994Z,2.27
2018-11-02T11:54:54.170Z,2.70
2018-11-02T11:56:58.013Z,2.57
2018-11-02T11:59:08.954Z,2.80
2018-11-02T12:01:14.189Z,2.10
2018-11-02T12:03:18.913Z,2.70
2018-11-02T12:05:23.033Z,2.60
2018-11-02T12:07:26.651Z,2.00
2018-11-02T12:09:30.424Z,2.00
2018-11-02T12:11:34.442Z,1.93
2018-11-02T12:13:39.004Z,2.57
2018-11-02T12:16:28.877Z,2.30
2018-11-02T12:18:37.299Z,2.30
2018-11-02T12:20:41.435Z,2.67
2018-11-02T12:22:46.610Z,2.47
2018-11-02T12:24:51.358Z,2.30
2018-11-02T12:27:16.420Z,2.40
2018-11-02T12:31:39.799Z,2.57
2018-11-02T12:33:43.771Z,2.13
2018-11-02T12:42:48.266Z,2.47
2018-11-02T12:44:53.387Z,2.90
2018-11-02T12:46:58.061Z,2.50
2018-11-02T12:49:03.021Z,2.50
2018-11-02T12:51:06.638Z,2.50
2018-11-02T12:53:10.548Z,2.50
2018-11-02T12:55:14.910Z,2.50
2018-11-02T12:57:18.813Z,2.50
2018-11-02T12:59:21.631Z,2.50
2018-11-02T13:01:27.118Z,2.50
2018-11-02T13:03:35.172Z,2.47
2018-11-02T13:05:39.282Z,2.87
2018-11-02T13:07:43.184Z,2.57
2018-11-02T13:09:46.979Z,2.57
2018-11-02T13:11:54.694Z,2.70
2018-11-02T13:13:57.583Z,2.43
2018-11-02T13:16:02.646Z,2.50
2018-11-02T13:31:37.625Z,2.70
2018-11-02T13:33:42.413Z,2.27
2018-11-02T13:35:48.744Z,2.80
2018-11-02T13:37:53.608Z,2.77
2018-11-02T13:39:57.878Z,2.50
2018-11-02T13:42:00.856Z,2.77
2018-11-02T13:44:03.759Z,2.70
2018-11-02T13:46:07.138Z,2.83
2018-11-02T13:48:11.008Z,2.73
2018-11-02T13:50:15.801Z,2.30
2018-11-02T13:52:20.447Z,2.83
2018-11-02T13:54:23.620Z,2.73
2018-11-02T13:56:28.397Z,2.40
2018-11-02T13:58:32.399Z,2.80
2018-11-02T14:00:36.660Z,2.63
2018-11-02T14:02:40.567Z,2.90
2018-11-02T14:04:45.830Z,3.33
2018-11-02T14:06:49.970Z,2.57
2018-11-02T14:08:53.620Z,2.80
2018-11-02T14:10:57.601Z,2.30
2018-11-02T14:13:09.483Z,2.97
2018-11-02T14:15:16.949Z,2.50
2018-11-02T14:17:20.111Z,3.03
2018-11-02T14:19:23.952Z,2.93
2018-11-02T14:21:28.297Z,3.10
2018-11-02T14:23:31.364Z,2.70
2018-11-02T14:25:37.051Z,2.80
2018-11-02T14:27:41.152Z,3.10
2018-11-02T14:29:45.465Z,2.70
2018-11-02T14:31:49.731Z,2.40
2018-11-02T14:33:52.656Z,2.83
2018-11-02T14:35:56.613Z,2.57
2018-11-02T14:38:00.747Z,2.70
2018-11-02T14:40:04.206Z,3.07
2018-11-02T14:42:08.883Z,2.70
2018-11-02T14:44:14.062Z,3.27
2018-11-02T14:46:18.433Z,3.37
2018-11-02T14:48:21.495Z,2.60
2018-11-02T14:50:26.473Z,3.43
2018-11-02T14:52:31.134Z,2.60
2018-11-02T14:54:35.509Z,2.67
2018-11-02T14:56:42.707Z,2.40
2018-11-02T14:58:46.554Z,3.27
2018-11-02T15:00:50.124Z,3.30
2018-11-02T15:02:54.925Z,2.60
2018-11-02T15:04:58.978Z,2.90
2018-11-02T15:09:22.757Z,2.80
2018-11-02T15:11:26.942Z,2.87
2018-11-02T15:13:30.567Z,3.00
2018-11-02T15:15:34.357Z,2.47
2018-11-02T15:17:40.267Z,3.00
2018-11-02T15:19:45.497Z,2.83
2018-11-02T15:21:49.399Z,3.87
2018-11-02T15:23:53.328Z,3.83
2018-11-02T15:25:59.878Z,7.97
2018-11-02T15:28:02.918Z,3.23
2018-11-02T15:30:09.090Z,3.90
2018-11-02T15:32:14.662Z,3.53
2018-11-02T15:34:17.638Z,3.40
2018-11-02T15:36:22.460Z,3.30
2018-11-02T15:38:27.663Z,4.40
2018-11-02T15:40:30.870Z,3.50
2018-11-02T15:42:35.703Z,3.80
2018-11-02T15:44:42.931Z,3.60
2018-11-02T15:46:46.471Z,3.47
2018-11-02T15:48:51.231Z,4.10
2018-11-02T15:50:55.162Z,3.83
2018-11-02T15:53:02.060Z,3.97
2018-11-02T15:55:07.093Z,3.87
2018-11-02T15:57:12.436Z,3.37
2018-11-02T15:59:18.701Z,3.73
2018-11-02T16:01:23.377Z,2.90
2018-11-02T16:03:32.088Z,3.40
2018-11-02T16:05:36.101Z,3.30
2018-11-02T16:07:43.084Z,3.07
2018-11-02T16:09:47.034Z,3.10
2018-11-02T16:11:52.063Z,4.03
2018-11-02T16:13:57.495Z,3.30
2018-11-02T16:16:01.176Z,4.00
2018-11-02T16:18:07.238Z,4.10
2018-11-02T16:20:19.509Z,3.57
2018-11-02T16:22:24.026Z,3.57
2018-11-02T16:26:41.665Z,4.00
2018-11-02T16:28:46.260Z,3.87
2018-11-02T16:30:52.650Z,4.30
2018-11-02T16:32:58.031Z,3.90
2018-11-02T16:35:02.098Z,4.20
2018-11-02T16:37:09.220Z,4.20
2018-11-02T16:39:13.468Z,4.37
2018-11-02T16:41:20.091Z,6.23
2018-11-02T16:43:24.096Z,4.17
2018-11-02T16:45:32.322Z,5.27
2018-11-02T16:47:37.389Z,5.37
2018-11-02T16:49:40.721Z,5.67
2018-11-02T16:51:43.781Z,5.27
2018-11-02T16:53:47.203Z,5.90
2018-11-02T16:55:58.018Z,5.47
2018-11-02T16:58:00.468Z,5.47
2018-11-02T17:00:03.014Z,5.03
2018-11-02T17:02:05.206Z,4.80
2018-11-02T17:04:07.420Z,5.27
2018-11-02T17:06:10.069Z,5.07
2018-11-02T17:08:12.182Z,5.93
2018-11-02T17:10:14.874Z,5.27
2018-11-02T17:12:17.111Z,5.37
2018-11-02T17:14:19.345Z,5.10
2018-11-02T17:16:21.523Z,5.40
2018-11-02T17:18:23.783Z,5.07
2018-11-02T17:20:25.927Z,5.57
2018-11-02T17:22:28.121Z,4.87
2018-11-02T17:24:30.923Z,5.07
2018-11-02T17:26:33.364Z,4.43
2018-11-02T17:28:35.627Z,4.90
2018-11-02T17:30:37.858Z,5.60
2018-11-02T17:32:40.070Z,5.07
2018-11-02T17:34:42.274Z,6.13
2018-11-02T17:36:44.580Z,7.50
2018-11-02T17:38:46.915Z,7.50
2018-11-02T17:40:49.094Z,6.57
2018-11-02T17:42:51.278Z,6.63
2018-11-02T17:44:53.555Z,6.20
2018-11-02T17:46:55.789Z,6.50
2018-11-02T17:48:57.979Z,6.90
2018-11-02T17:51:00.304Z,7.13
2018-11-02T17:53:02.527Z,7.63
2018-11-02T17:55:04.761Z,6.60
2018-11-02T17:57:06.996Z,7.30
2018-11-02T17:59:09.634Z,8.80
2018-11-02T18:01:11.811Z,5.77
2018-11-02T18:03:14.027Z,4.70
2018-11-02T18:05:16.562Z,4.97
2018-11-02T18:07:18.745Z,9.20
2018-11-02T18:09:20.926Z,4.63
2018-11-02T18:11:23.122Z,7.10
2018-11-02T18:13:25.466Z,5.80
2018-11-02T18:15:27.626Z,5.60
2018-11-02T18:17:29.806Z,6.23
2018-11-02T18:19:32.321Z,5.37
2018-11-02T18:21:34.519Z,7.50
2018-11-02T18:23:36.690Z,7.30
2018-11-02T18:25:38.898Z,11.97
2018-11-02T18:27:41.976Z,10.77
2018-11-02T18:29:44.207Z,13.23
2018-11-02T18:31:46.618Z,8.67
2018-11-02T18:33:48.793Z,6.83
2018-11-02T18:35:50.961Z,6.77
2018-11-02T18:37:53.485Z,7.57
2018-11-02T18:39:59.804Z,6.97
2018-11-02T18:42:02.076Z,6.83
2018-11-02T18:44:05.147Z,7.60
2018-11-02T18:46:07.438Z,8.50
2018-11-02T18:48:09.656Z,6.60
2018-11-02T18:50:14.411Z,6.75
2018-11-02T18:52:16.646Z,5.77
2018-11-02T18:54:18.880Z,5.97
2018-11-02T18:56:21.210Z,6.47
2018-11-02T18:58:23.384Z,5.30
2018-11-02T19:00:25.629Z,5.13
2018-11-02T19:02:27.881Z,5.80
2018-11-02T19:04:30.080Z,6.05
2018-11-02T19:06:32.263Z,6.20
2018-11-02T19:08:34.777Z,6.70
2018-11-02T19:10:37.145Z,5.85
2018-11-02T19:12:40.445Z,6.13
2018-11-02T19:14:43.069Z,5.30
2018-11-02T19:16:45.566Z,5.85
2018-11-02T19:18:49.520Z,6.22
2018-11-02T19:20:52.018Z,5.47
2018-11-02T19:22:57.220Z,5.90
2018-11-02T19:25:00.070Z,6.00
2018-11-02T19:27:04.770Z,7.20
2018-11-02T19:29:11.040Z,6.10
2018-11-02T19:31:18.365Z,6.10
2018-11-02T19:33:23.564Z,5.42
2018-11-02T19:35:30.127Z,5.70
2018-11-02T19:37:33.984Z,5.70
2018-11-02T19:39:36.641Z,5.70
2018-11-02T19:41:44.602Z,5.95
2018-11-02T19:43:50.933Z,5.85
2018-11-02T19:46:04.422Z,6.22
2018-11-02T19:48:10.174Z,5.90
2018-11-02T19:50:21.033Z,6.20
2018-11-02T19:52:31.971Z,5.85
2018-11-02T19:54:38.135Z,5.90
2018-11-02T19:56:41.882Z,6.17
2018-11-02T19:58:45.982Z,5.67
2018-11-02T20:00:48.485Z,6.75
2018-11-02T20:02:50.950Z,5.83
2018-11-02T20:05:00.083Z,6.40
2018-11-02T20:07:09.093Z,6.85
2018-11-02T20:09:12.608Z,6.47
2018-11-02T20:11:15.530Z,7.22
2018-11-02T20:13:17.922Z,7.80
2018-11-02T20:15:20.416Z,7.17
2018-11-02T20:17:22.909Z,7.40
2018-11-02T20:19:26.304Z,7.08
2018-11-02T20:21:28.595Z,6.33
2018-11-02T20:23:30.890Z,6.45
2018-11-02T20:25:35.708Z,6.25
2018-11-02T20:27:38.134Z,6.62
2018-11-02T20:29:40.678Z,6.45
2018-11-02T20:31:43.187Z,5.97
2018-11-02T20:33:45.334Z,5.83
2018-11-02T20:35:49.205Z,6.00
2018-11-02T20:37:51.477Z,5.97
2018-11-02T20:39:53.948Z,5.33
2018-11-02T20:41:56.698Z,5.80
2018-11-02T20:43:59.308Z,5.42
2018-11-02T20:46:01.842Z,5.65
2018-11-02T20:48:04.248Z,5.85
2018-11-02T20:50:07.522Z,6.10
2018-11-02T20:52:09.921Z,5.62
2018-11-02T20:54:12.442Z,5.85
2018-11-02T21:09:51.742Z,5.45
2018-11-02T21:11:54.126Z,5.20
2018-11-02T21:13:58.237Z,5.90
2018-11-02T21:16:00.586Z,5.70
2018-11-02T21:18:06.516Z,5.75
2018-11-02T21:20:13.392Z,5.78
2018-11-02T21:22:15.712Z,5.58
2018-11-02T21:24:18.019Z,5.50
2018-11-02T21:26:20.365Z,5.85
2018-11-02T21:28:22.737Z,5.40
2018-11-02T21:30:26.706Z,5.75
2018-11-02T21:32:28.936Z,6.17
2018-11-02T21:34:31.184Z,5.87
2018-11-02T21:36:33.541Z,6.17
2018-11-02T21:38:35.785Z,5.80
2018-11-02T21:40:38.010Z,6.87
2018-11-02T21:42:40.614Z,6.37
2018-11-02T21:44:42.809Z,6.65
2018-11-02T21:46:44.995Z,6.83
2018-11-02T21:48:47.183Z,6.75
2018-11-02T21:50:49.601Z,7.30
2018-11-02T21:52:51.967Z,6.00
2018-11-02T21:54:54.326Z,6.40
2018-11-02T21:56:56.762Z,6.20
2018-11-02T21:58:59.203Z,6.92
2018-11-02T22:01:01.761Z,6.45
2018-11-02T22:03:05.257Z,6.12
2018-11-02T22:05:10.331Z,6.60
2018-11-02T22:07:13.026Z,6.00
2018-11-02T22:09:15.379Z,6.28
2018-11-02T22:11:17.820Z,6.30
2018-11-02T22:13:20.891Z,6.60
2018-11-02T22:15:23.348Z,6.80
2018-11-02T22:17:25.762Z,7.17
2018-11-02T22:19:28.465Z,7.47
2018-11-02T22:21:31.683Z,6.45
2018-11-02T22:23:34.131Z,7.45
2018-11-02T22:25:38.800Z,7.30
2018-11-02T22:27:41.057Z,7.70
2018-11-02T22:29:43.287Z,6.30
2018-11-02T22:31:45.574Z,6.80
2018-11-02T22:33:47.820Z,6.70
2018-11-02T22:35:50.030Z,6.67
2018-11-02T22:37:52.956Z,6.47
2018-11-02T22:39:55.159Z,7.30
2018-11-02T22:41:57.799Z,7.05
2018-11-02T22:44:00.082Z,7.40
2018-11-02T22:46:02.267Z,7.05
2018-11-02T22:48:10.134Z,6.75
2018-11-02T22:50:12.319Z,6.95
2018-11-02T22:52:14.514Z,7.08
2018-11-02T22:54:16.691Z,7.55
2018-11-02T22:56:18.902Z,7.58
2018-11-02T22:58:21.135Z,8.73
2018-11-02T23:00:23.414Z,8.33
2018-11-02T23:02:25.671Z,8.30
2018-11-02T23:04:28.679Z,7.40
2018-11-02T23:06:30.959Z,7.75
2018-11-02T23:08:33.181Z,8.00
2018-11-02T23:10:35.526Z,7.92
2018-11-02T23:12:45.241Z,8.30
2018-11-02T23:14:47.694Z,7.30
2018-11-02T23:16:49.935Z,7.62
2018-11-02T23:18:52.251Z,7.33
2018-11-02T23:20:54.505Z,7.40
2018-11-02T23:22:56.898Z,7.15
2018-11-02T23:24:59.555Z,6.65
2018-11-02T23:27:01.803Z,7.08
2018-11-02T23:29:05.076Z,7.25
2018-11-02T23:31:07.736Z,7.10
2018-11-02T23:33:09.962Z,7.05
2018-11-02T23:35:12.224Z,7.40
2018-11-02T23:37:16.665Z,7.72
2018-11-02T23:39:18.997Z,7.47
2018-11-02T23:41:21.254Z,6.90
2018-11-02T23:43:23.621Z,8.03
2018-11-02T23:45:25.882Z,6.50
2018-11-02T23:47:28.091Z,7.17
2018-11-02T23:49:30.332Z,7.05
2018-11-02T23:51:32.649Z,7.50
2018-11-02T23:53:34.963Z,7.00
2018-11-02T23:55:37.179Z,7.37
2018-11-02T23:57:39.583Z,7.25
2018-11-02T23:59:41.829Z,6.95
